createdAt,value
2018-06-17T00:01:26.849Z,19.80
2018-06-17T00:04:51.465Z,19.70
2018-06-17T00:08:16.126Z,19.70
2018-06-17T00:11:40.895Z,19.70
2018-06-17T00:15:05.665Z,19.70
2018-06-17T00:18:30.376Z,19.70
2018-06-17T00:21:55.085Z,19.80
2018-06-17T00:25:19.868Z,19.70
2018-06-17T00:28:44.557Z,19.80
2018-06-17T00:32:09.415Z,19.80
2018-06-17T00:35:34.175Z,19.80
2018-06-17T00:38:58.842Z,19.90
2018-06-17T00:45:47.820Z,19.70
2018-06-17T00:49:12.551Z,19.70
2018-06-17T00:52:37.207Z,19.60
2018-06-17T00:56:01.834Z,19.70
2018-06-17T01:02:50.990Z,19.70
2018-06-17T01:09:40.113Z,19.70
2018-06-17T01:13:04.857Z,19.60
2018-06-17T01:16:29.633Z,19.60
2018-06-17T01:19:54.354Z,19.50
2018-06-17T01:23:19.109Z,19.60
2018-06-17T01:26:43.865Z,19.60
2018-06-17T01:30:08.526Z,19.50
2018-06-17T01:33:33.630Z,19.50
2018-06-17T01:36:58.309Z,19.50
2018-06-17T01:40:22.977Z,19.40
2018-06-17T01:43:47.669Z,19.50
2018-06-17T01:47:12.393Z,19.50
2018-06-17T01:50:37.078Z,19.50
2018-06-17T01:54:01.699Z,19.50
2018-06-17T01:57:26.593Z,19.40
2018-06-17T02:00:51.287Z,19.50
2018-06-17T02:04:21.125Z,19.40
2018-06-17T02:07:51.417Z,19.50
2018-06-17T02:11:21.507Z,19.40
2018-06-17T02:14:51.612Z,19.40
2018-06-17T02:18:16.249Z,19.30
2018-06-17T02:21:41.102Z,19.30
2018-06-17T02:25:05.944Z,19.30
2018-06-17T02:28:30.624Z,19.30
2018-06-17T02:31:55.269Z,19.30
2018-06-17T02:35:19.948Z,19.40
2018-06-17T02:38:44.602Z,19.30
2018-06-17T02:42:10.047Z,19.30
2018-06-17T02:45:39.999Z,19.30
2018-06-17T02:49:09.877Z,19.30
2018-06-17T02:52:39.685Z,19.20
2018-06-17T02:56:04.380Z,19.20
2018-06-17T02:59:29.204Z,19.20
2018-06-17T03:02:53.869Z,19.20
2018-06-17T03:09:42.958Z,19.20
2018-06-17T03:13:07.703Z,19.20
2018-06-17T03:16:32.649Z,19.10
2018-06-17T03:19:57.392Z,19.10
2018-06-17T03:23:22.047Z,19.10
2018-06-17T03:26:52.183Z,19.10
2018-06-17T03:30:22.105Z,19.10
2018-06-17T03:33:51.943Z,19.10
2018-06-17T03:37:16.735Z,19.00
2018-06-17T03:40:41.463Z,19.00
2018-06-17T03:44:06.457Z,19.00
2018-06-17T03:47:31.245Z,18.90
2018-06-17T03:50:56.085Z,18.80
2018-06-17T03:54:20.883Z,18.80
2018-06-17T03:57:45.619Z,18.80
2018-06-17T04:01:10.275Z,18.80
2018-06-17T04:04:40.263Z,18.90
2018-06-17T04:08:04.965Z,19.00
2018-06-17T04:11:29.729Z,19.00
2018-06-17T04:14:54.386Z,19.10
2018-06-17T04:18:19.079Z,19.10
2018-06-17T04:21:43.769Z,19.10
2018-06-17T04:25:08.559Z,19.10
2018-06-17T04:31:57.617Z,19.30
2018-06-17T04:35:22.373Z,19.10
2018-06-17T04:38:46.981Z,19.20
2018-06-17T04:42:11.631Z,19.20
2018-06-17T04:45:36.318Z,19.10
2018-06-17T04:49:01.066Z,19.20
2018-06-17T04:52:25.819Z,19.20
2018-06-17T04:55:50.494Z,19.10
2018-06-17T04:59:15.167Z,19.20
2018-06-17T05:02:39.825Z,19.10
2018-06-17T05:09:28.801Z,19.30
2018-06-17T05:12:53.457Z,19.40
2018-06-17T05:16:18.108Z,19.60
2018-06-17T05:19:42.761Z,19.60
2018-06-17T05:23:07.513Z,19.60
2018-06-17T05:26:32.246Z,19.60
2018-06-17T05:29:56.886Z,19.60
2018-06-17T05:36:45.896Z,19.50
2018-06-17T05:40:10.532Z,19.50
2018-06-17T05:43:35.156Z,19.40
2018-06-17T05:46:59.808Z,19.40
2018-06-17T05:50:24.416Z,19.50
2018-06-17T05:53:49.048Z,19.50
2018-06-17T05:57:13.714Z,19.60
2018-06-17T06:00:38.423Z,19.70
2018-06-17T06:04:03.098Z,19.70
2018-06-17T06:07:27.717Z,19.90
2018-06-17T06:10:52.437Z,20.00
2018-06-17T06:14:17.099Z,20.00
2018-06-17T06:17:41.775Z,20.00
2018-06-17T06:21:06.412Z,20.00
2018-06-17T06:24:31.011Z,20.20
2018-06-17T06:27:55.763Z,20.40
2018-06-17T06:31:20.444Z,20.50
2018-06-17T06:34:45.087Z,20.50
2018-06-17T06:41:34.143Z,20.60
2018-06-17T06:48:23.342Z,20.30
2018-06-17T06:51:47.995Z,20.30
2018-06-17T06:55:12.629Z,20.30
2018-06-17T06:58:37.337Z,20.10
2018-06-17T07:02:19.016Z,20.00
2018-06-17T07:06:00.879Z,20.00
2018-06-17T07:09:44.135Z,20.00
2018-06-17T07:16:50.484Z,20.00
2018-06-17T07:20:15.251Z,20.20
2018-06-17T07:23:40.049Z,20.30
2018-06-17T07:27:21.741Z,20.30
2018-06-17T07:30:46.493Z,20.60
2018-06-17T07:34:11.943Z,20.70
2018-06-17T07:41:00.998Z,20.90
2018-06-17T07:44:25.704Z,20.90
2018-06-17T07:47:50.401Z,21.10
2018-06-17T07:51:32.542Z,21.10
2018-06-17T07:58:21.720Z,21.30
2018-06-17T08:01:46.545Z,21.30
2018-06-17T08:05:11.362Z,21.40
2018-06-17T08:08:36.162Z,21.70
2018-06-17T08:15:26.424Z,21.50
2018-06-17T08:18:51.209Z,21.90
2018-06-17T08:22:15.922Z,22.10
2018-06-17T08:25:40.720Z,22.00
2018-06-17T08:29:05.443Z,22.10
2018-06-17T08:32:30.839Z,22.20
2018-06-17T08:35:55.922Z,22.10
2018-06-17T08:46:11.239Z,22.20
2018-06-17T08:49:36.066Z,22.50
2018-06-17T08:53:01.084Z,22.40
2018-06-17T08:56:26.790Z,22.20
2018-06-17T08:59:51.623Z,22.30
2018-06-17T09:03:16.787Z,22.40
2018-06-17T09:06:41.834Z,22.30
2018-06-17T09:10:06.836Z,22.20
2018-06-17T09:16:56.032Z,21.90
2018-06-17T09:20:20.766Z,22.20
2018-06-17T09:23:48.743Z,22.20
2018-06-17T09:30:37.914Z,22.50
2018-06-17T09:34:02.765Z,22.80
2018-06-17T09:37:27.518Z,23.00
2018-06-17T09:40:52.278Z,23.20
2018-06-17T09:44:16.941Z,23.40
2018-06-17T09:47:42.297Z,23.60
2018-06-17T09:51:07.189Z,23.30
2018-06-17T09:54:31.946Z,23.40
2018-06-17T09:57:56.736Z,23.00
2018-06-17T10:01:21.706Z,22.90
2018-06-17T10:04:46.452Z,22.80
2018-06-17T10:08:11.220Z,22.50
2018-06-17T10:11:35.972Z,22.20
2018-06-17T10:15:00.755Z,21.80
2018-06-17T10:18:29.984Z,21.50
2018-06-17T10:21:54.632Z,21.70
2018-06-17T10:25:19.333Z,21.60
2018-06-17T10:28:44.278Z,21.80
2018-06-17T10:32:09.874Z,22.00
2018-06-17T10:35:34.801Z,22.00
2018-06-17T10:39:00.359Z,22.00
2018-06-17T10:42:25.159Z,22.00
2018-06-17T10:45:49.922Z,22.30
2018-06-17T10:49:14.817Z,22.60
2018-06-17T10:52:40.952Z,22.90
2018-06-17T10:56:05.834Z,23.30
2018-06-17T10:59:30.611Z,23.50
2018-06-17T11:02:55.560Z,23.70
2018-06-17T11:06:21.112Z,23.80
2018-06-17T11:09:45.788Z,24.40
2018-06-17T11:20:00.065Z,25.20
2018-06-17T11:23:25.392Z,25.20
2018-06-17T11:26:50.163Z,25.40
2018-06-17T11:33:40.034Z,25.00
2018-06-17T11:37:04.856Z,25.00
2018-06-17T11:43:54.714Z,24.90
2018-06-17T11:47:19.456Z,24.80
2018-06-17T11:50:44.320Z,25.00
2018-06-17T11:54:09.164Z,25.10
2018-06-17T11:57:33.833Z,25.20
2018-06-17T12:00:58.724Z,25.10
2018-06-17T12:04:24.315Z,25.00
2018-06-17T12:07:49.139Z,24.80
2018-06-17T12:11:13.968Z,24.60
2018-06-17T12:14:38.778Z,24.70
2018-06-17T12:18:03.531Z,24.90
2018-06-17T12:21:28.280Z,24.80
2018-06-17T12:24:53.017Z,25.10
2018-06-17T12:28:18.041Z,24.80
2018-06-17T12:31:42.792Z,25.00
2018-06-17T12:35:07.497Z,25.00
2018-06-17T12:45:21.046Z,25.00
2018-06-17T12:48:45.792Z,25.30
2018-06-17T12:55:36.226Z,24.90
2018-06-17T12:59:01.022Z,24.70
2018-06-17T13:02:25.741Z,24.90
2018-06-17T13:05:50.618Z,25.20
2018-06-17T13:09:15.357Z,25.30
2018-06-17T13:12:40.086Z,25.50
2018-06-17T13:16:04.923Z,25.50
2018-06-17T13:19:29.689Z,25.30
2018-06-17T13:22:54.473Z,25.00
2018-06-17T13:26:19.229Z,25.10
2018-06-17T13:29:43.943Z,25.40
2018-06-17T13:33:08.731Z,25.70
2018-06-17T13:36:33.555Z,25.80
2018-06-17T13:39:58.229Z,25.80
2018-06-17T13:43:23.051Z,26.10
2018-06-17T13:53:37.016Z,26.00
2018-06-17T13:57:01.840Z,26.10
2018-06-17T14:00:26.798Z,26.20
2018-06-17T14:03:51.478Z,26.20
2018-06-17T14:07:16.172Z,25.90
2018-06-17T14:10:40.898Z,25.60
2018-06-17T14:14:06.785Z,25.30
2018-06-17T14:17:32.360Z,25.10
2018-06-17T14:20:57.090Z,25.10
2018-06-17T14:24:21.854Z,25.10
2018-06-17T14:27:46.569Z,25.20
2018-06-17T14:31:11.313Z,25.80
2018-06-17T14:38:00.355Z,26.40
2018-06-17T14:41:34.145Z,27.00
2018-06-17T14:45:04.188Z,26.70
2018-06-17T14:48:34.242Z,26.50
2018-06-17T14:52:04.298Z,26.50
2018-06-17T14:55:29.457Z,26.20
2018-06-17T14:58:54.195Z,25.70
2018-06-17T15:02:18.986Z,25.50
2018-06-17T15:05:43.745Z,24.80
2018-06-17T15:09:10.244Z,24.90
2018-06-17T15:19:24.219Z,23.90
2018-06-17T15:22:49.209Z,23.70
2018-06-17T15:26:13.971Z,23.50
2018-06-17T15:29:38.728Z,23.50
2018-06-17T15:33:08.781Z,23.50
2018-06-17T15:36:38.726Z,23.30
2018-06-17T15:40:03.560Z,23.20
2018-06-17T15:43:28.278Z,23.20
2018-06-17T15:50:17.449Z,23.40
2018-06-17T15:53:42.141Z,23.40
2018-06-17T15:57:07.302Z,23.70
2018-06-17T16:00:32.115Z,23.90
2018-06-17T16:07:21.515Z,23.60
2018-06-17T16:10:46.226Z,23.20
2018-06-17T16:14:16.335Z,23.10
2018-06-17T16:17:46.379Z,23.00
2018-06-17T16:21:11.082Z,23.10
2018-06-17T16:24:35.741Z,23.00
2018-06-17T16:28:00.386Z,22.80
2018-06-17T16:31:25.226Z,22.60
2018-06-17T16:34:50.053Z,22.60
2018-06-17T16:38:15.089Z,22.50
2018-06-17T16:45:04.402Z,22.50
2018-06-17T16:48:29.113Z,22.50
2018-06-17T16:51:59.069Z,22.40
2018-06-17T16:55:29.144Z,22.50
2018-06-17T16:58:59.170Z,22.60
2018-06-17T17:02:24.009Z,22.40
2018-06-17T17:05:48.806Z,22.40
2018-06-17T17:09:13.538Z,21.90
2018-06-17T17:12:38.316Z,21.90
2018-06-17T17:19:27.598Z,21.70
2018-06-17T17:22:52.380Z,21.60
2018-06-17T17:26:17.092Z,21.70
2018-06-17T17:29:41.941Z,21.60
2018-06-17T17:33:12.016Z,21.50
2018-06-17T17:36:42.061Z,21.30
2018-06-17T17:43:36.683Z,21.10
2018-06-17T17:47:06.826Z,21.20
2018-06-17T17:50:31.606Z,21.30
2018-06-17T17:53:57.047Z,21.10
2018-06-17T17:57:21.891Z,21.30
2018-06-17T18:00:46.558Z,21.20
2018-06-17T18:04:11.429Z,21.10
2018-06-17T18:07:36.173Z,20.80
2018-06-17T18:11:00.920Z,20.80
2018-06-17T18:14:25.606Z,20.80
2018-06-17T18:17:50.460Z,20.90
2018-06-17T18:21:15.312Z,20.70
2018-06-17T18:24:40.159Z,20.70
2018-06-17T18:28:10.438Z,20.60
2018-06-17T18:31:40.318Z,20.50
2018-06-17T18:35:17.798Z,20.50
2018-06-17T18:42:08.537Z,20.40
2018-06-17T18:45:33.406Z,20.30
2018-06-17T18:49:01.641Z,20.10
2018-06-17T18:52:27.947Z,20.10
2018-06-17T18:55:52.849Z,20.10
2018-06-17T18:59:17.773Z,20.10
2018-06-17T19:02:42.550Z,20.00
2018-06-17T19:06:08.334Z,19.90
2018-06-17T19:09:38.385Z,19.90
2018-06-17T19:14:12.528Z,19.90
2018-06-17T19:17:42.566Z,19.80
2018-06-17T19:21:07.467Z,19.80
2018-06-17T19:24:32.514Z,19.90
2018-06-17T19:27:57.515Z,19.70
2018-06-17T19:31:22.327Z,19.80
2018-06-17T19:34:47.054Z,19.70
2018-06-17T19:38:11.773Z,19.70
2018-06-17T19:41:37.933Z,19.60
2018-06-17T19:45:02.631Z,19.60
2018-06-17T19:48:27.678Z,19.60
2018-06-17T19:53:03.267Z,19.70
2018-06-17T19:56:33.471Z,19.70
2018-06-17T20:00:03.585Z,19.50
2018-06-17T20:03:28.524Z,19.50
2018-06-17T20:06:53.892Z,19.50
2018-06-17T20:10:18.660Z,19.50
2018-06-17T20:13:44.148Z,19.40
2018-06-17T20:17:08.831Z,19.40
2018-06-17T20:20:33.603Z,19.40
2018-06-17T20:23:58.403Z,19.40
2018-06-17T20:27:23.149Z,19.30
2018-06-17T20:30:48.552Z,19.20
2018-06-17T20:34:18.699Z,19.30
2018-06-17T20:37:48.568Z,19.30
2018-06-17T20:41:18.705Z,19.20
2018-06-17T20:44:43.425Z,19.20
2018-06-17T20:51:32.851Z,19.20
2018-06-17T20:54:57.555Z,19.10
2018-06-17T20:58:22.224Z,19.10
2018-06-17T21:01:46.878Z,19.00
2018-06-17T21:05:11.554Z,19.10
2018-06-17T21:08:36.528Z,19.10
2018-06-17T21:18:55.202Z,19.10
2018-06-17T21:23:26.187Z,19.00
2018-06-17T21:26:56.271Z,19.10
2018-06-17T21:30:21.459Z,19.00
2018-06-17T21:37:10.420Z,18.80
2018-06-17T21:40:35.173Z,18.90
2018-06-17T21:43:59.843Z,18.90
2018-06-17T21:47:24.521Z,18.90
2018-06-17T21:50:49.123Z,18.90
2018-06-17T21:54:13.885Z,18.90
2018-06-17T21:57:38.602Z,18.90
2018-06-17T22:04:33.053Z,18.80
2018-06-17T22:08:03.005Z,18.90
2018-06-17T22:11:33.044Z,18.80
2018-06-17T22:15:02.841Z,18.80
2018-06-17T22:18:27.543Z,18.90
2018-06-17T22:21:52.123Z,18.80
2018-06-17T22:25:17.057Z,18.80
2018-06-17T22:28:41.676Z,18.80
2018-06-17T22:32:06.349Z,18.80
2018-06-17T22:35:30.989Z,18.70
2018-06-17T22:38:55.643Z,18.70
2018-06-17T22:42:20.294Z,18.70
2018-06-17T22:49:09.245Z,18.70
2018-06-17T22:52:50.568Z,18.60
2018-06-17T22:56:20.543Z,18.60
2018-06-17T22:59:50.616Z,18.50
2018-06-17T23:03:20.472Z,18.50
2018-06-17T23:06:50.253Z,18.50
2018-06-17T23:10:14.850Z,18.50
2018-06-17T23:13:39.488Z,18.60
2018-06-17T23:17:04.135Z,18.60
2018-06-17T23:20:28.797Z,18.60
2018-06-17T23:27:17.743Z,18.50
2018-06-17T23:30:42.447Z,18.50
2018-06-17T23:34:07.228Z,18.50
2018-06-17T23:37:31.849Z,18.50
2018-06-17T23:40:56.463Z,18.50
2018-06-17T23:44:21.111Z,18.60
2018-06-17T23:47:50.951Z,18.50
2018-06-17T23:51:20.811Z,18.50
2018-06-17T23:54:50.744Z,18.50
2018-06-17T23:58:15.383Z,18.40
